createdAt,value
2023-01-28T00:01:30.806Z,11.30
2023-01-28T00:06:35.944Z,11.60
2023-01-28T00:11:39.774Z,13.48
2023-01-28T00:16:43.479Z,12.57
2023-01-28T00:21:48.594Z,11.02
2023-01-28T00:26:52.577Z,12.68
2023-01-28T00:31:58.942Z,10.30
2023-01-28T00:37:07.294Z,11.73
2023-01-28T00:42:11.073Z,11.18
2023-01-28T00:47:14.879Z,10.93
2023-01-28T00:52:19.987Z,11.25
2023-01-28T00:57:23.915Z,12.55
2023-01-28T01:02:27.922Z,9.90
2023-01-28T01:07:42.032Z,11.82
2023-01-28T01:12:48.206Z,11.80
2023-01-28T01:17:52.037Z,12.27
2023-01-28T01:22:57.670Z,11.60
2023-01-28T01:28:03.385Z,11.48
2023-01-28T01:33:07.289Z,12.07
2023-01-28T01:38:12.416Z,13.15
2023-01-28T01:43:18.640Z,11.27
2023-01-28T01:48:26.496Z,10.68
2023-01-28T01:53:33.581Z,13.35
2023-01-28T01:58:42.476Z,13.15
2023-01-28T02:03:54.367Z,12.45
2023-01-28T02:09:00.300Z,10.32
2023-01-28T02:14:07.621Z,12.15
2023-01-28T02:19:13.417Z,14.70
2023-01-28T02:24:52.909Z,10.00
2023-01-28T02:30:04.106Z,11.63
2023-01-28T02:35:15.309Z,11.48
2023-01-28T02:40:23.932Z,11.55
2023-01-28T02:45:47.886Z,11.52
2023-01-28T02:51:02.899Z,11.18
2023-01-28T02:56:18.968Z,12.07
2023-01-28T03:01:30.639Z,15.02
2023-01-28T03:06:39.222Z,11.57
2023-01-28T03:12:03.272Z,11.25
2023-01-28T03:17:32.387Z,12.37
2023-01-28T03:22:58.236Z,13.00
2023-01-28T03:28:23.876Z,12.40
2023-01-28T03:33:48.693Z,16.27
2023-01-28T03:38:52.967Z,11.70
2023-01-28T03:43:57.053Z,11.43
2023-01-28T03:49:02.340Z,13.27
2023-01-28T03:54:06.497Z,11.23
2023-01-28T03:59:10.501Z,11.30
2023-01-28T04:04:22.938Z,14.68
2023-01-28T04:09:27.163Z,11.38
2023-01-28T04:14:31.831Z,13.38
2023-01-28T04:19:41.810Z,11.88
2023-01-28T04:24:45.780Z,13.30
2023-01-28T04:29:49.610Z,12.80
2023-01-28T04:34:56.510Z,13.30
2023-01-28T04:40:00.607Z,12.68
2023-01-28T04:45:05.723Z,13.15
2023-01-28T04:50:11.696Z,12.45
2023-01-28T04:55:15.861Z,14.45
2023-01-28T05:00:20.620Z,13.62
2023-01-28T05:05:25.851Z,14.05
2023-01-28T05:10:30.358Z,13.57
2023-01-28T05:15:34.623Z,14.27
2023-01-28T05:20:39.836Z,14.40
2023-01-28T05:25:43.860Z,15.50
2023-01-28T05:30:49.787Z,16.15
2023-01-28T05:35:56.217Z,13.98
2023-01-28T05:41:00.184Z,14.52
2023-01-28T05:46:04.923Z,16.55
2023-01-28T05:51:10.342Z,14.55
2023-01-28T05:56:14.359Z,13.27
2023-01-28T06:01:18.577Z,13.60
2023-01-28T06:06:25.405Z,14.05
2023-01-28T06:11:29.475Z,14.95
2023-01-28T06:16:34.219Z,12.93
2023-01-28T06:21:43.253Z,12.98
2023-01-28T06:31:52.145Z,15.80
2023-01-28T06:36:57.268Z,15.18
2023-01-28T06:42:01.105Z,15.00
2023-01-28T06:47:04.993Z,14.43
2023-01-28T06:52:10.160Z,13.68
2023-01-28T06:57:14.120Z,16.92
2023-01-28T07:02:17.939Z,15.50
2023-01-28T07:07:23.060Z,15.30
2023-01-28T07:12:26.920Z,13.50
2023-01-28T07:17:30.756Z,16.02
2023-01-28T07:22:36.019Z,15.93
2023-01-28T07:27:39.779Z,16.90
2023-01-28T07:32:43.674Z,17.02
2023-01-28T07:37:54.257Z,17.58
2023-01-28T07:42:58.257Z,16.75
2023-01-28T07:48:05.613Z,16.48
2023-01-28T07:53:12.883Z,19.20
2023-01-28T07:58:16.708Z,16.57
2023-01-28T08:03:22.622Z,16.98
2023-01-28T08:08:28.420Z,17.98
2023-01-28T08:13:32.163Z,17.52
2023-01-28T08:18:35.991Z,16.02
2023-01-28T08:23:41.067Z,16.08
2023-01-28T08:28:44.818Z,15.13
2023-01-28T08:33:48.584Z,16.58
2023-01-28T08:38:55.159Z,17.25
2023-01-28T08:43:58.973Z,14.70
2023-01-28T08:49:02.890Z,20.55
2023-01-28T08:54:10.261Z,18.70
2023-01-28T08:59:14.029Z,17.77
2023-01-28T09:04:19.828Z,18.67
2023-01-28T09:09:24.886Z,14.27
2023-01-28T09:14:28.668Z,15.88
2023-01-28T09:19:32.455Z,18.05
2023-01-28T09:24:38.988Z,17.20
2023-01-28T09:29:42.963Z,16.73
2023-01-28T09:34:46.829Z,16.65
2023-01-28T09:39:51.932Z,15.95
2023-01-28T09:45:04.122Z,16.27
2023-01-28T09:50:15.898Z,18.58
2023-01-28T09:55:30.467Z,16.73
2023-01-28T10:00:43.496Z,16.20
2023-01-28T10:05:59.291Z,13.25
2023-01-28T10:11:13.719Z,15.57
2023-01-28T10:16:25.706Z,14.02
2023-01-28T10:21:34.470Z,13.43
2023-01-28T10:26:42.746Z,13.00
2023-01-28T10:31:53.725Z,15.25
2023-01-28T10:36:58.761Z,14.60
2023-01-28T10:42:03.926Z,14.50
2023-01-28T10:47:13.775Z,13.48
2023-01-28T10:52:20.185Z,13.98
2023-01-28T10:57:25.423Z,15.60
2023-01-28T11:02:37.023Z,14.33
2023-01-28T11:07:40.878Z,17.08
2023-01-28T11:12:56.253Z,14.90
2023-01-28T11:18:04.000Z,14.15
2023-01-28T11:23:08.001Z,13.68
2023-01-28T11:28:20.504Z,16.70
2023-01-28T11:33:32.292Z,12.45
2023-01-28T11:38:36.445Z,11.95
2023-01-28T11:43:41.653Z,9.63
2023-01-28T11:48:55.143Z,8.50
2023-01-28T11:54:14.832Z,8.70
2023-01-28T11:59:38.093Z,10.60
2023-01-28T12:04:58.665Z,8.52
2023-01-28T12:10:10.812Z,9.07
2023-01-28T12:15:47.380Z,10.68
2023-01-28T12:20:57.288Z,10.30
2023-01-28T12:26:09.078Z,9.45
2023-01-28T12:31:36.437Z,8.75
2023-01-28T12:36:50.438Z,10.13
2023-01-28T12:42:05.397Z,8.50
2023-01-28T12:47:13.483Z,8.07
2023-01-28T12:52:21.212Z,7.18
2023-01-28T12:57:29.009Z,7.87
2023-01-28T13:02:40.450Z,5.90
2023-01-28T13:07:49.266Z,8.63
2023-01-28T13:12:54.650Z,5.68
2023-01-28T13:18:00.922Z,6.72
2023-01-28T13:23:07.585Z,13.30
2023-01-28T13:28:28.505Z,6.50
2023-01-28T13:33:35.682Z,6.40
2023-01-28T13:38:40.306Z,6.32
2023-01-28T13:43:44.138Z,6.35
2023-01-28T13:48:52.178Z,6.03
2023-01-28T13:54:01.734Z,7.47
2023-01-28T13:59:29.299Z,7.97
2023-01-28T14:05:00.203Z,7.37
2023-01-28T14:10:27.013Z,7.00
2023-01-28T14:16:15.039Z,6.72
2023-01-28T14:21:21.954Z,8.98
2023-01-28T14:26:33.176Z,7.93
2023-01-28T14:31:39.094Z,8.70
2023-01-28T14:36:46.633Z,7.97
2023-01-28T14:41:53.455Z,7.50
2023-01-28T14:47:18.588Z,6.80
2023-01-28T14:52:44.069Z,6.57
2023-01-28T14:57:53.140Z,7.05
2023-01-28T15:02:57.540Z,7.60
2023-01-28T15:08:02.726Z,8.30
2023-01-28T15:13:09.381Z,11.82
2023-01-28T15:18:18.520Z,9.38
2023-01-28T15:23:27.629Z,10.95
2023-01-28T15:28:34.159Z,9.13
2023-01-28T15:33:37.929Z,8.25
2023-01-28T15:38:43.074Z,12.37
2023-01-28T15:43:50.397Z,13.05
2023-01-28T15:49:05.335Z,16.37
2023-01-28T15:54:12.164Z,9.77
2023-01-28T15:59:20.882Z,13.30
2023-01-28T16:04:28.882Z,13.60
2023-01-28T16:09:36.083Z,11.93
2023-01-28T16:14:45.264Z,12.43
2023-01-28T16:19:52.204Z,14.38
2023-01-28T16:24:57.404Z,11.38
2023-01-28T16:30:02.261Z,14.65
2023-01-28T16:35:15.234Z,13.55
2023-01-28T16:40:22.995Z,11.98
2023-01-28T16:45:29.104Z,15.43
2023-01-28T16:50:33.664Z,14.25
2023-01-28T16:55:38.761Z,13.75
2023-01-28T17:00:42.575Z,14.60
2023-01-28T17:05:46.455Z,16.00
2023-01-28T17:10:54.974Z,17.50
2023-01-28T17:16:02.186Z,15.18
2023-01-28T17:21:07.828Z,21.33
2023-01-28T17:26:15.427Z,17.83
2023-01-28T17:31:19.345Z,15.87
2023-01-28T17:36:24.461Z,20.27
2023-01-28T17:41:29.695Z,25.02
2023-01-28T17:46:33.448Z,20.37
2023-01-28T17:51:37.256Z,19.27
2023-01-28T17:56:42.474Z,21.35
2023-01-28T18:01:47.450Z,19.75
2023-01-28T18:06:51.698Z,22.02
2023-01-28T18:11:56.930Z,19.90
2023-01-28T18:17:01.083Z,16.60
2023-01-28T18:22:04.883Z,19.58
2023-01-28T18:27:10.032Z,22.80
2023-01-28T18:32:13.784Z,25.80
2023-01-28T18:37:17.837Z,23.42
2023-01-28T18:42:25.041Z,23.17
2023-01-28T18:47:28.937Z,27.17
2023-01-28T18:52:32.711Z,19.98
2023-01-28T18:57:37.861Z,19.30
2023-01-28T19:02:41.611Z,23.70
2023-01-28T19:07:45.360Z,22.87
2023-01-28T19:12:50.517Z,23.08
2023-01-28T19:17:54.321Z,19.35
2023-01-28T19:22:58.152Z,20.98
2023-01-28T19:28:03.248Z,22.55
2023-01-28T19:33:07.769Z,21.83
2023-01-28T19:38:11.599Z,27.70
2023-01-28T19:43:16.799Z,28.08
2023-01-28T19:48:20.530Z,22.55
2023-01-28T19:53:24.449Z,23.83
2023-01-28T19:58:29.609Z,25.48
2023-01-28T20:03:33.744Z,25.00
2023-01-28T20:08:37.477Z,30.65
2023-01-28T20:13:44.698Z,24.30
2023-01-28T20:18:53.148Z,28.27
2023-01-28T20:23:59.290Z,26.27
2023-01-28T20:29:07.115Z,25.60
2023-01-28T20:34:16.023Z,26.52
2023-01-28T20:39:20.042Z,30.33
2023-01-28T20:44:26.675Z,37.17
2023-01-28T20:49:30.535Z,32.75
2023-01-28T20:54:34.336Z,29.23
2023-01-28T20:59:39.500Z,24.20
2023-01-28T21:04:43.258Z,25.73
2023-01-28T21:09:46.944Z,25.12
2023-01-28T21:14:54.261Z,26.30
2023-01-28T21:19:58.316Z,29.15
2023-01-28T21:25:05.311Z,23.08
2023-01-28T21:30:12.414Z,27.47
2023-01-28T21:35:16.379Z,25.35
2023-01-28T21:40:20.271Z,26.48
2023-01-28T21:45:25.596Z,27.02
2023-01-28T21:50:29.387Z,31.12
2023-01-28T21:55:34.441Z,32.28
2023-01-28T22:00:39.500Z,33.20
2023-01-28T22:05:43.892Z,33.60
2023-01-28T22:10:47.604Z,33.80
2023-01-28T22:15:52.792Z,29.12
2023-01-28T22:20:59.840Z,31.35
2023-01-28T22:26:03.729Z,32.10
2023-01-28T22:31:11.034Z,29.40
2023-01-28T22:36:16.550Z,28.00
2023-01-28T22:41:23.165Z,34.75
2023-01-28T22:46:29.251Z,38.65
2023-01-28T22:51:35.096Z,44.22
2023-01-28T22:56:40.172Z,40.03
2023-01-28T23:01:45.301Z,38.85
2023-01-28T23:06:49.104Z,43.85
2023-01-28T23:11:52.899Z,46.13
2023-01-28T23:17:15.653Z,47.38
2023-01-28T23:22:40.715Z,43.03
2023-01-28T23:27:44.966Z,47.85
2023-01-28T23:32:50.844Z,49.78
2023-01-28T23:37:55.665Z,46.80
2023-01-28T23:43:01.580Z,49.70
2023-01-28T23:48:06.730Z,50.33
2023-01-28T23:53:13.210Z,43.72
2023-01-28T23:58:26.572Z,39.70
